sensor_id;sensor_type;location;lat;lon;timestamp;temperature;humidity
1301;DHT22;59099;48.806;9.160;2022-09-14T00:00:40;18.70;99.90
1301;DHT22;59099;48.806;9.160;2022-09-14T00:03:07;18.70;99.90
1301;DHT22;59099;48.806;9.160;2022-09-14T00:05:36;18.60;99.90
1301;DHT22;59099;48.806;9.160;2022-09-14T00:08:02;18.70;99.90
1301;DHT22;59099;48.806;9.160;2022-09-14T00:10:28;18.80;99.90
1301;DHT22;59099;48.806;9.160;2022-09-14T00:12:54;18.80;99.90
1301;DHT22;59099;48.806;9.160;2022-09-14T00:15:19;18.80;99.90
1301;DHT22;59099;48.806;9.160;2022-09-14T00:17:45;18.80;99.90
1301;DHT22;59099;48.806;9.160;2022-09-14T00:20:11;18.80;99.90
1301;DHT22;59099;48.806;9.160;2022-09-14T00:22:38;18.70;99.90
1301;DHT22;59099;48.806;9.160;2022-09-14T00:25:05;18.70;99.90
1301;DHT22;59099;48.806;9.160;2022-09-14T00:27:31;18.70;99.90
1301;DHT22;59099;48.806;9.160;2022-09-14T00:29:57;18.80;99.90
1301;DHT22;59099;48.806;9.160;2022-09-14T00:32:23;18.80;99.90
1301;DHT22;59099;48.806;9.160;2022-09-14T00:34:49;18.80;99.90
1301;DHT22;59099;48.806;9.160;2022-09-14T00:37:14;18.80;99.90
1301;DHT22;59099;48.806;9.160;2022-09-14T00:39:40;18.90;99.90
1301;DHT22;59099;48.806;9.160;2022-09-14T00:42:06;19.00;99.90
1301;DHT22;59099;48.806;9.160;2022-09-14T00:46:59;19.00;99.90
1301;DHT22;59099;48.806;9.160;2022-09-14T00:52:06;18.90;99.90
1301;DHT22;59099;48.806;9.160;2022-09-14T00:54:38;18.90;99.90
1301;DHT22;59099;48.806;9.160;2022-09-14T00:57:05;18.90;99.90
1301;DHT22;59099;48.806;9.160;2022-09-14T00:59:34;19.00;99.90
1301;DHT22;59099;48.806;9.160;2022-09-14T01:02:01;19.00;99.90
1301;DHT22;59099;48.806;9.160;2022-09-14T01:04:27;18.90;99.90
1301;DHT22;59099;48.806;9.160;2022-09-14T01:10:06;18.80;99.90
1301;DHT22;59099;48.806;9.160;2022-09-14T01:18:30;18.90;99.90
1301;DHT22;59099;48.806;9.160;2022-09-14T01:21:01;18.90;99.90
1301;DHT22;59099;48.806;9.160;2022-09-14T01:29:40;18.90;99.90
1301;DHT22;59099;48.806;9.160;2022-09-14T01:34:53;18.60;99.90
1301;DHT22;59099;48.806;9.160;2022-09-14T01:37:27;18.70;99.90
1301;DHT22;59099;48.806;9.160;2022-09-14T01:40:04;18.30;99.90
1301;DHT22;59099;48.806;9.160;2022-09-14T01:42:32;18.00;99.90
1301;DHT22;59099;48.806;9.160;2022-09-14T01:45:00;17.90;99.90
1301;DHT22;59099;48.806;9.160;2022-09-14T01:47:35;17.80;99.90
1301;DHT22;59099;48.806;9.160;2022-09-14T01:50:11;17.80;99.90
1301;DHT22;59099;48.806;9.160;2022-09-14T01:52:46;17.80;99.90
1301;DHT22;59099;48.806;9.160;2022-09-14T01:55:31;17.80;99.90
1301;DHT22;59099;48.806;9.160;2022-09-14T02:00:38;17.80;99.90
1301;DHT22;59099;48.806;9.160;2022-09-14T02:03:19;18.00;99.90
1301;DHT22;59099;48.806;9.160;2022-09-14T02:06:09;18.10;99.90
1301;DHT22;59099;48.806;9.160;2022-09-14T02:08:39;18.10;99.90
1301;DHT22;59099;48.806;9.160;2022-09-14T02:11:05;18.00;99.90
1301;DHT22;59099;48.806;9.160;2022-09-14T02:13:32;18.00;99.90
1301;DHT22;59099;48.806;9.160;2022-09-14T02:15:58;18.00;99.90
1301;DHT22;59099;48.806;9.160;2022-09-14T02:18:24;18.00;99.90
1301;DHT22;59099;48.806;9.160;2022-09-14T02:20:59;18.00;99.90
1301;DHT22;59099;48.806;9.160;2022-09-14T02:23:26;18.10;99.90
1301;DHT22;59099;48.806;9.160;2022-09-14T02:25:52;18.10;99.90
1301;DHT22;59099;48.806;9.160;2022-09-14T02:28:20;18.00;99.90
1301;DHT22;59099;48.806;9.160;2022-09-14T02:31:11;18.00;99.90
1301;DHT22;59099;48.806;9.160;2022-09-14T02:39:36;18.10;99.90
1301;DHT22;59099;48.806;9.160;2022-09-14T02:51:25;18.20;99.90
1301;DHT22;59099;48.806;9.160;2022-09-14T02:54:14;18.20;99.90
1301;DHT22;59099;48.806;9.160;2022-09-14T02:56:40;18.20;99.90
1301;DHT22;59099;48.806;9.160;2022-09-14T02:59:06;18.30;99.90
1301;DHT22;59099;48.806;9.160;2022-09-14T03:01:32;18.20;99.90
1301;DHT22;59099;48.806;9.160;2022-09-14T03:03:59;18.10;99.90
1301;DHT22;59099;48.806;9.160;2022-09-14T03:06:25;18.10;99.90
1301;DHT22;59099;48.806;9.160;2022-09-14T03:08:50;18.10;99.90
1301;DHT22;59099;48.806;9.160;2022-09-14T03:11:16;18.10;99.90
1301;DHT22;59099;48.806;9.160;2022-09-14T03:13:42;18.10;99.90
1301;DHT22;59099;48.806;9.160;2022-09-14T03:16:16;18.10;99.90
1301;DHT22;59099;48.806;9.160;2022-09-14T03:18:42;18.20;99.90
1301;DHT22;59099;48.806;9.160;2022-09-14T03:21:11;18.10;99.90
1301;DHT22;59099;48.806;9.160;2022-09-14T03:23:49;18.10;99.90
1301;DHT22;59099;48.806;9.160;2022-09-14T03:26:21;18.20;99.90
1301;DHT22;59099;48.806;9.160;2022-09-14T03:28:56;18.20;99.90
1301;DHT22;59099;48.806;9.160;2022-09-14T03:31:25;18.20;99.90
1301;DHT22;59099;48.806;9.160;2022-09-14T03:33:52;18.10;99.90
1301;DHT22;59099;48.806;9.160;2022-09-14T03:36:20;18.10;99.90
1301;DHT22;59099;48.806;9.160;2022-09-14T03:38:48;18.10;99.90
1301;DHT22;59099;48.806;9.160;2022-09-14T03:41:15;18.10;99.90
1301;DHT22;59099;48.806;9.160;2022-09-14T03:43:44;18.20;99.90
1301;DHT22;59099;48.806;9.160;2022-09-14T03:46:15;18.20;99.90
1301;DHT22;59099;48.806;9.160;2022-09-14T03:48:44;18.20;99.90
1301;DHT22;59099;48.806;9.160;2022-09-14T03:51:16;18.20;99.90
1301;DHT22;59099;48.806;9.160;2022-09-14T03:56:25;18.20;99.90
1301;DHT22;59099;48.806;9.160;2022-09-14T03:58:51;18.20;99.90
1301;DHT22;59099;48.806;9.160;2022-09-14T04:01:21;18.20;99.90
1301;DHT22;59099;48.806;9.160;2022-09-14T04:03:47;18.20;99.90
1301;DHT22;59099;48.806;9.160;2022-09-14T04:06:14;18.20;99.90
1301;DHT22;59099;48.806;9.160;2022-09-14T04:08:41;18.30;99.90
1301;DHT22;59099;48.806;9.160;2022-09-14T04:11:19;18.30;99.90
1301;DHT22;59099;48.806;9.160;2022-09-14T04:13:46;18.30;99.90
1301;DHT22;59099;48.806;9.160;2022-09-14T04:16:13;18.30;99.90
1301;DHT22;59099;48.806;9.160;2022-09-14T04:18:39;18.30;99.90
1301;DHT22;59099;48.806;9.160;2022-09-14T04:21:17;18.30;99.90
1301;DHT22;59099;48.806;9.160;2022-09-14T04:23:44;18.30;99.90
1301;DHT22;59099;48.806;9.160;2022-09-14T04:26:12;18.30;99.90
1301;DHT22;59099;48.806;9.160;2022-09-14T04:28:38;18.30;99.90
1301;DHT22;59099;48.806;9.160;2022-09-14T04:31:04;18.30;99.90
1301;DHT22;59099;48.806;9.160;2022-09-14T04:33:32;18.40;99.90
1301;DHT22;59099;48.806;9.160;2022-09-14T04:36:00;18.30;99.90
1301;DHT22;59099;48.806;9.160;2022-09-14T04:38:27;18.20;99.90
1301;DHT22;59099;48.806;9.160;2022-09-14T04:40:54;18.20;99.90
1301;DHT22;59099;48.806;9.160;2022-09-14T04:43:23;18.20;99.90
1301;DHT22;59099;48.806;9.160;2022-09-14T04:45:51;18.20;99.90
1301;DHT22;59099;48.806;9.160;2022-09-14T04:48:17;18.20;99.90
1301;DHT22;59099;48.806;9.160;2022-09-14T04:50:43;18.20;99.90
1301;DHT22;59099;48.806;9.160;2022-09-14T04:53:10;18.20;99.90
1301;DHT22;59099;48.806;9.160;2022-09-14T04:55:39;18.20;99.90
1301;DHT22;59099;48.806;9.160;2022-09-14T04:58:04;18.20;99.90
1301;DHT22;59099;48.806;9.160;2022-09-14T05:00:33;18.10;99.90
1301;DHT22;59099;48.806;9.160;2022-09-14T05:03:03;18.10;99.90
1301;DHT22;59099;48.806;9.160;2022-09-14T05:05:29;18.10;99.90
1301;DHT22;59099;48.806;9.160;2022-09-14T05:07:55;18.20;99.90
1301;DHT22;59099;48.806;9.160;2022-09-14T05:10:21;18.20;99.90
1301;DHT22;59099;48.806;9.160;2022-09-14T05:12:47;18.20;99.90
1301;DHT22;59099;48.806;9.160;2022-09-14T05:15:13;18.20;99.90
1301;DHT22;59099;48.806;9.160;2022-09-14T05:17:39;18.20;99.90
1301;DHT22;59099;48.806;9.160;2022-09-14T05:23:29;18.20;99.90
1301;DHT22;59099;48.806;9.160;2022-09-14T05:25:56;18.10;99.90
1301;DHT22;59099;48.806;9.160;2022-09-14T05:28:22;18.20;99.90
1301;DHT22;59099;48.806;9.160;2022-09-14T05:30:47;18.20;99.90
1301;DHT22;59099;48.806;9.160;2022-09-14T05:33:13;18.20;99.90
1301;DHT22;59099;48.806;9.160;2022-09-14T05:35:39;18.20;99.90
1301;DHT22;59099;48.806;9.160;2022-09-14T05:38:05;18.20;99.90
1301;DHT22;59099;48.806;9.160;2022-09-14T05:40:31;18.30;99.90
1301;DHT22;59099;48.806;9.160;2022-09-14T05:42:57;18.30;99.90
1301;DHT22;59099;48.806;9.160;2022-09-14T05:45:23;18.40;99.90
1301;DHT22;59099;48.806;9.160;2022-09-14T05:47:49;18.40;99.90
1301;DHT22;59099;48.806;9.160;2022-09-14T05:50:14;18.50;99.90
1301;DHT22;59099;48.806;9.160;2022-09-14T05:52:40;18.60;99.90
1301;DHT22;59099;48.806;9.160;2022-09-14T05:55:06;18.60;99.90
1301;DHT22;59099;48.806;9.160;2022-09-14T05:57:32;18.70;99.90
1301;DHT22;59099;48.806;9.160;2022-09-14T05:59:58;18.70;99.90
1301;DHT22;59099;48.806;9.160;2022-09-14T06:02:24;18.80;99.90
1301;DHT22;59099;48.806;9.160;2022-09-14T06:04:50;18.90;99.90
1301;DHT22;59099;48.806;9.160;2022-09-14T06:07:15;18.90;99.90
1301;DHT22;59099;48.806;9.160;2022-09-14T06:09:41;19.00;99.90
1301;DHT22;59099;48.806;9.160;2022-09-14T06:12:07;19.00;99.90
1301;DHT22;59099;48.806;9.160;2022-09-14T06:14:33;19.10;99.90
1301;DHT22;59099;48.806;9.160;2022-09-14T06:17:00;19.00;99.90
1301;DHT22;59099;48.806;9.160;2022-09-14T06:19:26;19.00;99.90
1301;DHT22;59099;48.806;9.160;2022-09-14T06:21:52;19.10;99.90
1301;DHT22;59099;48.806;9.160;2022-09-14T06:24:18;19.00;99.90
1301;DHT22;59099;48.806;9.160;2022-09-14T06:26:44;19.00;99.90
1301;DHT22;59099;48.806;9.160;2022-09-14T06:29:09;19.00;99.90
1301;DHT22;59099;48.806;9.160;2022-09-14T06:31:35;19.10;99.90
1301;DHT22;59099;48.806;9.160;2022-09-14T06:34:01;19.20;99.90
1301;DHT22;59099;48.806;9.160;2022-09-14T06:36:28;19.30;99.90
1301;DHT22;59099;48.806;9.160;2022-09-14T06:38:54;19.30;99.90
1301;DHT22;59099;48.806;9.160;2022-09-14T06:41:22;19.20;99.90
1301;DHT22;59099;48.806;9.160;2022-09-14T06:43:49;19.20;99.90
1301;DHT22;59099;48.806;9.160;2022-09-14T06:46:16;19.10;99.90
1301;DHT22;59099;48.806;9.160;2022-09-14T06:48:57;19.20;99.90
1301;DHT22;59099;48.806;9.160;2022-09-14T06:53:51;19.40;99.90
1301;DHT22;59099;48.806;9.160;2022-09-14T06:56:18;19.60;99.90
1301;DHT22;59099;48.806;9.160;2022-09-14T06:58:44;19.60;99.90
1301;DHT22;59099;48.806;9.160;2022-09-14T07:01:13;19.70;99.90
1301;DHT22;59099;48.806;9.160;2022-09-14T07:03:40;19.80;99.90
1301;DHT22;59099;48.806;9.160;2022-09-14T07:06:15;19.80;99.90
1301;DHT22;59099;48.806;9.160;2022-09-14T07:08:42;19.90;99.90
1301;DHT22;59099;48.806;9.160;2022-09-14T07:11:09;20.00;99.90
1301;DHT22;59099;48.806;9.160;2022-09-14T07:13:36;20.10;99.90
1301;DHT22;59099;48.806;9.160;2022-09-14T07:16:02;20.20;99.90
1301;DHT22;59099;48.806;9.160;2022-09-14T07:18:28;20.20;99.90
1301;DHT22;59099;48.806;9.160;2022-09-14T07:21:02;20.20;99.90
1301;DHT22;59099;48.806;9.160;2022-09-14T07:23:28;20.30;99.90
1301;DHT22;59099;48.806;9.160;2022-09-14T07:26:02;20.30;99.90
1301;DHT22;59099;48.806;9.160;2022-09-14T07:28:30;20.30;99.90
1301;DHT22;59099;48.806;9.160;2022-09-14T07:30:56;20.30;99.90
1301;DHT22;59099;48.806;9.160;2022-09-14T07:33:22;20.40;99.90
1301;DHT22;59099;48.806;9.160;2022-09-14T07:35:48;20.40;99.90
1301;DHT22;59099;48.806;9.160;2022-09-14T07:38:14;20.50;99.90
1301;DHT22;59099;48.806;9.160;2022-09-14T07:40:40;20.50;99.90
1301;DHT22;59099;48.806;9.160;2022-09-14T07:43:06;20.50;99.90
1301;DHT22;59099;48.806;9.160;2022-09-14T07:45:33;20.60;99.90
1301;DHT22;59099;48.806;9.160;2022-09-14T07:47:59;20.70;99.90
1301;DHT22;59099;48.806;9.160;2022-09-14T07:50:25;20.70;99.90
1301;DHT22;59099;48.806;9.160;2022-09-14T07:52:51;20.80;99.90
1301;DHT22;59099;48.806;9.160;2022-09-14T07:55:16;20.90;99.90
1301;DHT22;59099;48.806;9.160;2022-09-14T07:57:43;21.00;99.90
1301;DHT22;59099;48.806;9.160;2022-09-14T08:00:09;21.10;99.90
1301;DHT22;59099;48.806;9.160;2022-09-14T08:02:37;21.20;99.90
1301;DHT22;59099;48.806;9.160;2022-09-14T08:05:03;21.30;99.90
1301;DHT22;59099;48.806;9.160;2022-09-14T08:07:29;21.40;99.90
1301;DHT22;59099;48.806;9.160;2022-09-14T08:09:55;21.50;99.90
1301;DHT22;59099;48.806;9.160;2022-09-14T08:12:21;21.70;99.90
1301;DHT22;59099;48.806;9.160;2022-09-14T08:14:46;21.80;99.90
1301;DHT22;59099;48.806;9.160;2022-09-14T08:17:12;21.90;99.90
1301;DHT22;59099;48.806;9.160;2022-09-14T08:19:38;22.00;99.90
1301;DHT22;59099;48.806;9.160;2022-09-14T08:22:05;22.00;99.90
1301;DHT22;59099;48.806;9.160;2022-09-14T08:24:31;22.10;99.90
1301;DHT22;59099;48.806;9.160;2022-09-14T08:26:58;22.30;99.90
1301;DHT22;59099;48.806;9.160;2022-09-14T08:29:24;22.40;99.90
1301;DHT22;59099;48.806;9.160;2022-09-14T08:31:50;22.40;99.90
1301;DHT22;59099;48.806;9.160;2022-09-14T08:34:18;22.50;99.90
1301;DHT22;59099;48.806;9.160;2022-09-14T08:36:45;22.60;99.90
1301;DHT22;59099;48.806;9.160;2022-09-14T08:39:12;22.70;99.90
1301;DHT22;59099;48.806;9.160;2022-09-14T08:41:47;22.80;99.90
1301;DHT22;59099;48.806;9.160;2022-09-14T08:47:03;22.70;99.90
1301;DHT22;59099;48.806;9.160;2022-09-14T09:00:51;23.50;99.90
1301;DHT22;59099;48.806;9.160;2022-09-14T09:03:30;23.50;99.90
1301;DHT22;59099;48.806;9.160;2022-09-14T09:06:15;23.60;99.90
1301;DHT22;59099;48.806;9.160;2022-09-14T09:11:26;23.70;99.90
1301;DHT22;59099;48.806;9.160;2022-09-14T09:13:54;23.80;99.90
1301;DHT22;59099;48.806;9.160;2022-09-14T09:16:23;24.00;99.90
1301;DHT22;59099;48.806;9.160;2022-09-14T09:21:32;24.10;99.90
1301;DHT22;59099;48.806;9.160;2022-09-14T09:26:50;24.10;99.90
1301;DHT22;59099;48.806;9.160;2022-09-14T09:29:16;24.20;99.90
1301;DHT22;59099;48.806;9.160;2022-09-14T09:32:00;24.40;99.90
1301;DHT22;59099;48.806;9.160;2022-09-14T09:34:48;24.40;99.90
1301;DHT22;59099;48.806;9.160;2022-09-14T09:37:31;24.50;99.90
1301;DHT22;59099;48.806;9.160;2022-09-14T09:39:59;24.80;99.90
1301;DHT22;59099;48.806;9.160;2022-09-14T09:42:25;24.90;99.90
1301;DHT22;59099;48.806;9.160;2022-09-14T09:45:04;25.00;99.90
1301;DHT22;59099;48.806;9.160;2022-09-14T09:47:36;25.70;99.90
1301;DHT22;59099;48.806;9.160;2022-09-14T09:52:49;26.60;99.90
1301;DHT22;59099;48.806;9.160;2022-09-14T09:55:23;27.30;99.90
1301;DHT22;59099;48.806;9.160;2022-09-14T09:57:52;28.30;99.90
1301;DHT22;59099;48.806;9.160;2022-09-14T10:00:22;28.00;99.90
1301;DHT22;59099;48.806;9.160;2022-09-14T10:02:49;27.60;99.90
1301;DHT22;59099;48.806;9.160;2022-09-14T10:07:55;27.30;99.90
1301;DHT22;59099;48.806;9.160;2022-09-14T10:13:00;27.90;99.90
1301;DHT22;59099;48.806;9.160;2022-09-14T10:15:29;28.30;99.90
1301;DHT22;59099;48.806;9.160;2022-09-14T10:18:16;27.80;99.90
1301;DHT22;59099;48.806;9.160;2022-09-14T10:25:43;26.80;99.90
1301;DHT22;59099;48.806;9.160;2022-09-14T10:28:30;26.70;99.90
1301;DHT22;59099;48.806;9.160;2022-09-14T10:33:48;27.40;99.90
1301;DHT22;59099;48.806;9.160;2022-09-14T10:37:06;27.40;99.90
1301;DHT22;59099;48.806;9.160;2022-09-14T10:39:26;27.30;99.90
1301;DHT22;59099;48.806;9.160;2022-09-14T10:42:06;26.90;99.90
1301;DHT22;59099;48.806;9.160;2022-09-14T10:47:24;26.60;99.90
1301;DHT22;59099;48.806;9.160;2022-09-14T11:07:24;27.20;99.90
1301;DHT22;59099;48.806;9.160;2022-09-14T11:15:41;26.80;99.90
1301;DHT22;59099;48.806;9.160;2022-09-14T11:18:23;26.90;99.90
1301;DHT22;59099;48.806;9.160;2022-09-14T11:21:18;27.50;99.90
1301;DHT22;59099;48.806;9.160;2022-09-14T11:26:18;28.90;99.90
1301;DHT22;59099;48.806;9.160;2022-09-14T11:31:48;29.00;99.90
1301;DHT22;59099;48.806;9.160;2022-09-14T11:34:28;28.90;99.90
1301;DHT22;59099;48.806;9.160;2022-09-14T11:36:58;28.30;99.90
1301;DHT22;59099;48.806;9.160;2022-09-14T11:39:32;28.50;99.90
1301;DHT22;59099;48.806;9.160;2022-09-14T11:42:13;28.80;99.90
1301;DHT22;59099;48.806;9.160;2022-09-14T11:44:42;29.00;99.90
1301;DHT22;59099;48.806;9.160;2022-09-14T11:47:16;29.60;99.90
1301;DHT22;59099;48.806;9.160;2022-09-14T11:49:57;30.20;99.90
1301;DHT22;59099;48.806;9.160;2022-09-14T11:52:26;30.10;99.90
1301;DHT22;59099;48.806;9.160;2022-09-14T11:54:53;29.90;99.90
1301;DHT22;59099;48.806;9.160;2022-09-14T11:57:27;29.90;99.90
1301;DHT22;59099;48.806;9.160;2022-09-14T11:59:55;29.30;99.90
1301;DHT22;59099;48.806;9.160;2022-09-14T12:12:41;27.30;99.90
1301;DHT22;59099;48.806;9.160;2022-09-14T12:15:31;27.20;99.90
1301;DHT22;59099;48.806;9.160;2022-09-14T12:41:01;26.10;99.90
1301;DHT22;59099;48.806;9.160;2022-09-14T13:04:54;21.30;99.90
1301;DHT22;59099;48.806;9.160;2022-09-14T13:07:21;20.90;99.90
1301;DHT22;59099;48.806;9.160;2022-09-14T13:09:52;20.70;99.90
1301;DHT22;59099;48.806;9.160;2022-09-14T13:15:02;20.30;99.90
1301;DHT22;59099;48.806;9.160;2022-09-14T13:17:28;20.10;99.90
1301;DHT22;59099;48.806;9.160;2022-09-14T13:19:56;20.00;99.90
1301;DHT22;59099;48.806;9.160;2022-09-14T13:22:26;20.00;99.90
1301;DHT22;59099;48.806;9.160;2022-09-14T13:24:54;19.90;99.90
1301;DHT22;59099;48.806;9.160;2022-09-14T13:27:28;19.90;99.90
1301;DHT22;59099;48.806;9.160;2022-09-14T13:30:04;19.80;99.90
1301;DHT22;59099;48.806;9.160;2022-09-14T13:32:33;19.70;99.90
1301;DHT22;59099;48.806;9.160;2022-09-14T13:35:02;19.60;99.90
1301;DHT22;59099;48.806;9.160;2022-09-14T13:37:29;19.50;99.90
1301;DHT22;59099;48.806;9.160;2022-09-14T13:39:56;19.60;99.90
1301;DHT22;59099;48.806;9.160;2022-09-14T13:42:23;19.50;99.90
1301;DHT22;59099;48.806;9.160;2022-09-14T13:44:51;19.60;99.90
1301;DHT22;59099;48.806;9.160;2022-09-14T13:47:22;19.70;99.90
1301;DHT22;59099;48.806;9.160;2022-09-14T13:49:51;19.70;99.90
1301;DHT22;59099;48.806;9.160;2022-09-14T13:52:28;19.70;99.90
1301;DHT22;59099;48.806;9.160;2022-09-14T14:00:47;19.60;99.90
1301;DHT22;59099;48.806;9.160;2022-09-14T14:05:47;19.60;99.90
1301;DHT22;59099;48.806;9.160;2022-09-14T14:08:39;19.60;99.90
1301;DHT22;59099;48.806;9.160;2022-09-14T14:11:06;19.60;99.90
1301;DHT22;59099;48.806;9.160;2022-09-14T14:13:34;19.50;99.90
1301;DHT22;59099;48.806;9.160;2022-09-14T14:18:49;19.60;99.90
1301;DHT22;59099;48.806;9.160;2022-09-14T14:23:51;19.80;99.90
1301;DHT22;59099;48.806;9.160;2022-09-14T14:26:25;19.90;99.90
1301;DHT22;59099;48.806;9.160;2022-09-14T14:28:53;19.90;99.90
1301;DHT22;59099;48.806;9.160;2022-09-14T14:31:20;19.80;99.90
1301;DHT22;59099;48.806;9.160;2022-09-14T14:33:49;19.90;99.90
1301;DHT22;59099;48.806;9.160;2022-09-14T14:36:16;19.90;99.90
1301;DHT22;59099;48.806;9.160;2022-09-14T14:38:44;19.80;99.90
1301;DHT22;59099;48.806;9.160;2022-09-14T14:41:17;19.90;99.90
1301;DHT22;59099;48.806;9.160;2022-09-14T14:43:44;19.90;99.90
1301;DHT22;59099;48.806;9.160;2022-09-14T14:46:12;19.90;99.90
1301;DHT22;59099;48.806;9.160;2022-09-14T14:48:39;20.10;99.90
1301;DHT22;59099;48.806;9.160;2022-09-14T14:51:08;20.00;99.90
1301;DHT22;59099;48.806;9.160;2022-09-14T14:53:36;20.00;99.90
1301;DHT22;59099;48.806;9.160;2022-09-14T14:56:02;20.00;99.90
1301;DHT22;59099;48.806;9.160;2022-09-14T14:58:28;19.90;99.90
1301;DHT22;59099;48.806;9.160;2022-09-14T15:00:54;19.90;99.90
1301;DHT22;59099;48.806;9.160;2022-09-14T15:03:20;19.90;99.90
1301;DHT22;59099;48.806;9.160;2022-09-14T15:05:47;19.80;99.90
1301;DHT22;59099;48.806;9.160;2022-09-14T15:08:14;19.70;99.90
1301;DHT22;59099;48.806;9.160;2022-09-14T15:10:41;19.60;99.90
1301;DHT22;59099;48.806;9.160;2022-09-14T15:13:09;19.50;99.90
1301;DHT22;59099;48.806;9.160;2022-09-14T15:15:38;19.40;99.90
1301;DHT22;59099;48.806;9.160;2022-09-14T15:18:05;19.40;99.90
1301;DHT22;59099;48.806;9.160;2022-09-14T15:20:31;19.50;99.90
1301;DHT22;59099;48.806;9.160;2022-09-14T15:22:57;19.50;99.90
1301;DHT22;59099;48.806;9.160;2022-09-14T15:25:23;19.40;99.90
1301;DHT22;59099;48.806;9.160;2022-09-14T15:27:48;19.40;99.90
1301;DHT22;59099;48.806;9.160;2022-09-14T15:30:23;19.50;99.90
1301;DHT22;59099;48.806;9.160;2022-09-14T15:32:57;19.40;99.90
1301;DHT22;59099;48.806;9.160;2022-09-14T15:35:23;19.60;99.90
1301;DHT22;59099;48.806;9.160;2022-09-14T15:37:49;19.60;99.90
1301;DHT22;59099;48.806;9.160;2022-09-14T15:40:15;19.90;99.90
1301;DHT22;59099;48.806;9.160;2022-09-14T15:42:41;20.20;99.90
1301;DHT22;59099;48.806;9.160;2022-09-14T15:45:07;20.30;99.90
1301;DHT22;59099;48.806;9.160;2022-09-14T15:47:33;20.60;99.90
1301;DHT22;59099;48.806;9.160;2022-09-14T15:49:59;20.70;99.90
1301;DHT22;59099;48.806;9.160;2022-09-14T15:52:25;21.40;99.90
1301;DHT22;59099;48.806;9.160;2022-09-14T15:54:51;21.50;99.90
1301;DHT22;59099;48.806;9.160;2022-09-14T15:57:16;22.20;99.90
1301;DHT22;59099;48.806;9.160;2022-09-14T15:59:42;22.60;99.90
1301;DHT22;59099;48.806;9.160;2022-09-14T16:02:09;22.40;99.90
1301;DHT22;59099;48.806;9.160;2022-09-14T16:04:37;22.50;99.90
1301;DHT22;59099;48.806;9.160;2022-09-14T16:07:05;22.50;99.90
1301;DHT22;59099;48.806;9.160;2022-09-14T16:09:35;22.90;99.90
1301;DHT22;59099;48.806;9.160;2022-09-14T16:12:01;23.00;99.90
1301;DHT22;59099;48.806;9.160;2022-09-14T16:14:27;22.80;99.90
1301;DHT22;59099;48.806;9.160;2022-09-14T16:16:52;22.20;99.90
1301;DHT22;59099;48.806;9.160;2022-09-14T16:19:18;21.80;99.90
1301;DHT22;59099;48.806;9.160;2022-09-14T16:21:44;21.50;99.90
1301;DHT22;59099;48.806;9.160;2022-09-14T16:24:12;21.20;99.90
1301;DHT22;59099;48.806;9.160;2022-09-14T16:26:39;21.00;99.90
1301;DHT22;59099;48.806;9.160;2022-09-14T16:29:06;20.90;99.90
1301;DHT22;59099;48.806;9.160;2022-09-14T16:31:37;20.90;99.90
1301;DHT22;59099;48.806;9.160;2022-09-14T16:34:05;21.00;99.90
1301;DHT22;59099;48.806;9.160;2022-09-14T16:36:36;21.50;99.90
1301;DHT22;59099;48.806;9.160;2022-09-14T16:39:04;21.60;99.90
1301;DHT22;59099;48.806;9.160;2022-09-14T16:41:30;21.50;99.90
1301;DHT22;59099;48.806;9.160;2022-09-14T16:44:00;21.50;99.90
1301;DHT22;59099;48.806;9.160;2022-09-14T16:46:28;21.30;99.90
1301;DHT22;59099;48.806;9.160;2022-09-14T16:48:54;21.30;99.90
1301;DHT22;59099;48.806;9.160;2022-09-14T16:51:22;21.20;99.90
1301;DHT22;59099;48.806;9.160;2022-09-14T16:53:49;21.10;99.90
1301;DHT22;59099;48.806;9.160;2022-09-14T16:56:19;21.10;99.90
1301;DHT22;59099;48.806;9.160;2022-09-14T16:58:47;20.90;99.90
1301;DHT22;59099;48.806;9.160;2022-09-14T17:01:16;20.70;99.90
1301;DHT22;59099;48.806;9.160;2022-09-14T17:03:43;20.70;99.90
1301;DHT22;59099;48.806;9.160;2022-09-14T17:06:12;20.60;99.90
1301;DHT22;59099;48.806;9.160;2022-09-14T17:08:39;20.60;99.90
1301;DHT22;59099;48.806;9.160;2022-09-14T17:11:05;20.60;99.90
1301;DHT22;59099;48.806;9.160;2022-09-14T17:13:31;20.50;99.90
1301;DHT22;59099;48.806;9.160;2022-09-14T17:16:01;20.40;99.90
1301;DHT22;59099;48.806;9.160;2022-09-14T17:18:28;20.30;99.90
1301;DHT22;59099;48.806;9.160;2022-09-14T17:20:55;20.30;99.90
1301;DHT22;59099;48.806;9.160;2022-09-14T17:23:22;20.20;99.90
1301;DHT22;59099;48.806;9.160;2022-09-14T17:25:48;20.10;99.90
1301;DHT22;59099;48.806;9.160;2022-09-14T17:28:14;20.10;99.90
1301;DHT22;59099;48.806;9.160;2022-09-14T17:30:41;20.00;99.90
1301;DHT22;59099;48.806;9.160;2022-09-14T17:33:08;19.90;99.90
1301;DHT22;59099;48.806;9.160;2022-09-14T17:35:34;19.90;99.90
1301;DHT22;59099;48.806;9.160;2022-09-14T17:38:00;19.90;99.90
1301;DHT22;59099;48.806;9.160;2022-09-14T17:40:29;19.90;99.90
1301;DHT22;59099;48.806;9.160;2022-09-14T17:42:55;19.80;99.90
1301;DHT22;59099;48.806;9.160;2022-09-14T17:45:21;19.80;99.90
1301;DHT22;59099;48.806;9.160;2022-09-14T17:47:47;19.70;99.90
1301;DHT22;59099;48.806;9.160;2022-09-14T17:50:13;19.70;99.90
1301;DHT22;59099;48.806;9.160;2022-09-14T17:52:38;19.70;99.90
1301;DHT22;59099;48.806;9.160;2022-09-14T17:55:05;19.60;99.90
1301;DHT22;59099;48.806;9.160;2022-09-14T17:57:30;19.60;99.90
1301;DHT22;59099;48.806;9.160;2022-09-14T17:59:56;19.70;99.90
1301;DHT22;59099;48.806;9.160;2022-09-14T18:02:22;19.60;99.90
1301;DHT22;59099;48.806;9.160;2022-09-14T18:04:49;19.50;99.90
1301;DHT22;59099;48.806;9.160;2022-09-14T18:07:15;19.60;99.90
1301;DHT22;59099;48.806;9.160;2022-09-14T18:09:41;19.60;99.90
1301;DHT22;59099;48.806;9.160;2022-09-14T18:12:07;19.60;99.90
1301;DHT22;59099;48.806;9.160;2022-09-14T18:14:34;19.60;99.90
1301;DHT22;59099;48.806;9.160;2022-09-14T18:17:00;19.60;99.90
1301;DHT22;59099;48.806;9.160;2022-09-14T18:19:26;19.50;99.90
1301;DHT22;59099;48.806;9.160;2022-09-14T18:21:52;19.50;99.90
1301;DHT22;59099;48.806;9.160;2022-09-14T18:24:18;19.50;99.90
1301;DHT22;59099;48.806;9.160;2022-09-14T18:26:44;19.60;99.90
1301;DHT22;59099;48.806;9.160;2022-09-14T18:29:16;19.60;99.90
1301;DHT22;59099;48.806;9.160;2022-09-14T18:31:42;19.70;99.90
1301;DHT22;59099;48.806;9.160;2022-09-14T18:34:08;19.60;99.90
1301;DHT22;59099;48.806;9.160;2022-09-14T18:36:35;19.60;99.90
1301;DHT22;59099;48.806;9.160;2022-09-14T18:39:01;19.50;99.90
1301;DHT22;59099;48.806;9.160;2022-09-14T18:41:27;19.40;99.90
1301;DHT22;59099;48.806;9.160;2022-09-14T18:43:56;19.40;99.90
1301;DHT22;59099;48.806;9.160;2022-09-14T18:46:22;19.40;99.90
1301;DHT22;59099;48.806;9.160;2022-09-14T18:48:52;19.30;99.90
1301;DHT22;59099;48.806;9.160;2022-09-14T18:51:19;19.30;99.90
1301;DHT22;59099;48.806;9.160;2022-09-14T18:53:45;19.40;99.90
1301;DHT22;59099;48.806;9.160;2022-09-14T18:56:14;19.40;99.90
1301;DHT22;59099;48.806;9.160;2022-09-14T18:58:44;19.30;99.90
1301;DHT22;59099;48.806;9.160;2022-09-14T19:01:11;19.40;99.90
1301;DHT22;59099;48.806;9.160;2022-09-14T19:03:38;19.40;99.90